sensor_id;sensor_type;location;lat;lon;timestamp;pressure;altitude;pressure_sealevel;temperature;humidity
22025;BME280;11176;51.448;6.650;2023-04-09T00:01:06;42316.09;;;-141.29;100.00
22025;BME280;11176;51.448;6.650;2023-04-09T00:03:33;42312.09;;;-141.29;100.00
22025;BME280;11176;51.448;6.650;2023-04-09T00:06:00;42324.09;;;-141.29;100.00
22025;BME280;11176;51.448;6.650;2023-04-09T00:08:27;42334.06;;;-141.29;100.00
22025;BME280;11176;51.448;6.650;2023-04-09T00:10:53;42346.03;;;-141.29;100.00
22025;BME280;11176;51.448;6.650;2023-04-09T00:13:20;42322.09;;;-141.29;100.00
22025;BME280;11176;51.448;6.650;2023-04-09T00:16:04;42322.09;;;-141.29;100.00
22025;BME280;11176;51.448;6.650;2023-04-09T00:18:31;42328.06;;;-141.29;100.00
22025;BME280;11176;51.448;6.650;2023-04-09T00:20:57;42338.06;;;-141.29;100.00
22025;BME280;11176;51.448;6.650;2023-04-09T00:23:24;42338.06;;;-141.29;100.00
22025;BME280;11176;51.448;6.650;2023-04-09T00:25:50;42346.03;;;-141.29;100.00
22025;BME280;11176;51.448;6.650;2023-04-09T00:28:17;42344.06;;;-141.29;100.00
22025;BME280;11176;51.448;6.650;2023-04-09T00:30:43;42338.06;;;-141.29;100.00
22025;BME280;11176;51.448;6.650;2023-04-09T00:33:10;42326.09;;;-141.29;100.00
22025;BME280;11176;51.448;6.650;2023-04-09T00:35:36;42342.06;;;-141.29;100.00
22025;BME280;11176;51.448;6.650;2023-04-09T00:38:03;42326.09;;;-141.29;100.00
22025;BME280;11176;51.448;6.650;2023-04-09T00:40:29;42358.03;;;-141.29;100.00
22025;BME280;11176;51.448;6.650;2023-04-09T00:42:56;42354.03;;;-141.29;100.00
22025;BME280;11176;51.448;6.650;2023-04-09T00:45:23;42336.06;;;-141.29;100.00
22025;BME280;11176;51.448;6.650;2023-04-09T00:47:49;42354.03;;;-141.29;100.00
22025;BME280;11176;51.448;6.650;2023-04-09T00:50:16;42348.03;;;-141.29;100.00
22025;BME280;11176;51.448;6.650;2023-04-09T00:52:43;42346.03;;;-141.29;100.00
22025;BME280;11176;51.448;6.650;2023-04-09T00:55:09;42340.06;;;-141.29;100.00
22025;BME280;11176;51.448;6.650;2023-04-09T00:57:37;42354.03;;;-141.29;100.00
22025;BME280;11176;51.448;6.650;2023-04-09T01:00:04;42314.09;;;-141.29;100.00
22025;BME280;11176;51.448;6.650;2023-04-09T01:02:33;42320.09;;;-141.29;100.00
22025;BME280;11176;51.448;6.650;2023-04-09T01:05:00;42322.09;;;-141.29;100.00
22025;BME280;11176;51.448;6.650;2023-04-09T01:07:50;42328.06;;;-141.29;100.00
22025;BME280;11176;51.448;6.650;2023-04-09T01:10:27;42298.13;;;-141.29;100.00
22025;BME280;11176;51.448;6.650;2023-04-09T01:13:12;42310.09;;;-141.29;100.00
22025;BME280;11176;51.448;6.650;2023-04-09T01:15:48;42326.09;;;-141.29;100.00
22025;BME280;11176;51.448;6.650;2023-04-09T01:21:20;42318.09;;;-141.29;100.00
22025;BME280;11176;51.448;6.650;2023-04-09T01:23:59;42306.13;;;-141.29;100.00
22025;BME280;11176;51.448;6.650;2023-04-09T01:27:07;42298.13;;;-141.29;100.00
22025;BME280;11176;51.448;6.650;2023-04-09T01:29:50;42314.09;;;-141.29;100.00
22025;BME280;11176;51.448;6.650;2023-04-09T01:32:19;42272.16;;;-141.29;100.00
22025;BME280;11176;51.448;6.650;2023-04-09T01:34:47;42296.13;;;-141.29;100.00
22025;BME280;11176;51.448;6.650;2023-04-09T01:37:14;42278.16;;;-141.29;100.00
22025;BME280;11176;51.448;6.650;2023-04-09T01:39:42;42292.13;;;-141.29;100.00
22025;BME280;11176;51.448;6.650;2023-04-09T01:42:09;42290.13;;;-141.29;100.00
22025;BME280;11176;51.448;6.650;2023-04-09T01:44:38;42282.16;;;-141.29;100.00
22025;BME280;11176;51.448;6.650;2023-04-09T01:47:06;42274.16;;;-141.29;100.00
22025;BME280;11176;51.448;6.650;2023-04-09T01:49:34;42294.13;;;-141.29;100.00
22025;BME280;11176;51.448;6.650;2023-04-09T01:52:01;42292.13;;;-141.29;100.00
22025;BME280;11176;51.448;6.650;2023-04-09T01:54:28;42294.13;;;-141.29;100.00
22025;BME280;11176;51.448;6.650;2023-04-09T01:56:56;42318.09;;;-141.29;100.00
22025;BME280;11176;51.448;6.650;2023-04-09T01:59:22;42302.13;;;-141.29;100.00
22025;BME280;11176;51.448;6.650;2023-04-09T02:01:53;42302.13;;;-141.29;100.00
22025;BME280;11176;51.448;6.650;2023-04-09T02:04:26;42302.13;;;-141.29;100.00
22025;BME280;11176;51.448;6.650;2023-04-09T02:07:14;42298.13;;;-141.29;100.00
22025;BME280;11176;51.448;6.650;2023-04-09T02:09:43;42302.13;;;-141.29;100.00
22025;BME280;11176;51.448;6.650;2023-04-09T02:12:13;42306.13;;;-141.29;100.00
22025;BME280;11176;51.448;6.650;2023-04-09T02:14:44;42296.13;;;-141.29;100.00
22025;BME280;11176;51.448;6.650;2023-04-09T02:17:12;42280.16;;;-141.29;100.00
22025;BME280;11176;51.448;6.650;2023-04-09T02:19:39;42294.13;;;-141.29;100.00
22025;BME280;11176;51.448;6.650;2023-04-09T02:22:05;42326.09;;;-141.29;100.00
22025;BME280;11176;51.448;6.650;2023-04-09T02:24:32;42286.16;;;-141.29;100.00
22025;BME280;11176;51.448;6.650;2023-04-09T02:26:59;42318.09;;;-141.29;100.00
22025;BME280;11176;51.448;6.650;2023-04-09T02:29:25;42290.13;;;-141.29;100.00
22025;BME280;11176;51.448;6.650;2023-04-09T02:31:52;42310.09;;;-141.29;100.00
22025;BME280;11176;51.448;6.650;2023-04-09T02:34:19;42310.09;;;-141.29;100.00
22025;BME280;11176;51.448;6.650;2023-04-09T02:36:47;42302.13;;;-141.29;100.00
22025;BME280;11176;51.448;6.650;2023-04-09T02:39:13;42302.13;;;-141.29;100.00
22025;BME280;11176;51.448;6.650;2023-04-09T02:41:39;42270.19;;;-141.29;100.00
22025;BME280;11176;51.448;6.650;2023-04-09T02:44:06;42326.09;;;-141.29;100.00
22025;BME280;11176;51.448;6.650;2023-04-09T02:46:33;42306.13;;;-141.29;100.00
22025;BME280;11176;51.448;6.650;2023-04-09T02:48:59;42310.09;;;-141.29;100.00
22025;BME280;11176;51.448;6.650;2023-04-09T02:51:26;42338.06;;;-141.29;100.00
22025;BME280;11176;51.448;6.650;2023-04-09T02:53:53;42324.09;;;-141.29;100.00
22025;BME280;11176;51.448;6.650;2023-04-09T02:56:19;42354.03;;;-141.29;100.00
22025;BME280;11176;51.448;6.650;2023-04-09T02:58:46;42322.09;;;-141.29;100.00
22025;BME280;11176;51.448;6.650;2023-04-09T03:01:14;42350.03;;;-141.29;100.00
22025;BME280;11176;51.448;6.650;2023-04-09T03:03:41;42328.06;;;-141.29;100.00
22025;BME280;11176;51.448;6.650;2023-04-09T03:06:08;42338.06;;;-141.29;100.00
22025;BME280;11176;51.448;6.650;2023-04-09T03:08:34;42346.03;;;-141.29;100.00
22025;BME280;11176;51.448;6.650;2023-04-09T03:11:01;42326.09;;;-141.29;100.00
22025;BME280;11176;51.448;6.650;2023-04-09T03:13:27;42306.13;;;-141.29;100.00
22025;BME280;11176;51.448;6.650;2023-04-09T03:15:54;42348.03;;;-141.29;100.00
22025;BME280;11176;51.448;6.650;2023-04-09T03:18:21;42342.06;;;-141.29;100.00
22025;BME280;11176;51.448;6.650;2023-04-09T03:20:47;42352.03;;;-141.29;100.00
22025;BME280;11176;51.448;6.650;2023-04-09T03:23:14;42370.00;;;-141.29;100.00
22025;BME280;11176;51.448;6.650;2023-04-09T03:25:44;42326.09;;;-141.29;100.00
22025;BME280;11176;51.448;6.650;2023-04-09T03:28:14;42334.06;;;-141.29;100.00
22025;BME280;11176;51.448;6.650;2023-04-09T03:30:45;42352.03;;;-141.29;100.00
22025;BME280;11176;51.448;6.650;2023-04-09T03:33:12;42348.03;;;-141.29;100.00
22025;BME280;11176;51.448;6.650;2023-04-09T03:35:48;42338.06;;;-141.29;100.00
22025;BME280;11176;51.448;6.650;2023-04-09T03:38:19;42338.06;;;-141.29;100.00
22025;BME280;11176;51.448;6.650;2023-04-09T03:40:46;42298.13;;;-141.29;100.00
22025;BME280;11176;51.448;6.650;2023-04-09T03:43:13;42312.09;;;-141.29;100.00
22025;BME280;11176;51.448;6.650;2023-04-09T03:45:46;42316.09;;;-141.29;100.00
22025;BME280;11176;51.448;6.650;2023-04-09T03:48:19;42324.09;;;-141.29;100.00
22025;BME280;11176;51.448;6.650;2023-04-09T03:50:46;42304.13;;;-141.29;100.00
22025;BME280;11176;51.448;6.650;2023-04-09T03:53:17;42310.09;;;-141.29;100.00
22025;BME280;11176;51.448;6.650;2023-04-09T03:55:44;42294.13;;;-141.29;100.00
22025;BME280;11176;51.448;6.650;2023-04-09T03:58:18;42322.09;;;-141.29;100.00
22025;BME280;11176;51.448;6.650;2023-04-09T04:00:46;42282.16;;;-141.29;100.00
22025;BME280;11176;51.448;6.650;2023-04-09T04:03:31;42318.09;;;-141.29;100.00
22025;BME280;11176;51.448;6.650;2023-04-09T04:06:36;42300.13;;;-141.29;100.00
22025;BME280;11176;51.448;6.650;2023-04-09T04:09:19;42296.13;;;-141.29;100.00
22025;BME280;11176;51.448;6.650;2023-04-09T04:11:51;42280.16;;;-141.29;100.00
22025;BME280;11176;51.448;6.650;2023-04-09T04:14:20;42312.09;;;-141.29;100.00
22025;BME280;11176;51.448;6.650;2023-04-09T04:16:52;42318.09;;;-141.29;100.00
22025;BME280;11176;51.448;6.650;2023-04-09T04:19:21;42290.13;;;-141.29;100.00
22025;BME280;11176;51.448;6.650;2023-04-09T04:21:50;42284.16;;;-141.29;100.00
22025;BME280;11176;51.448;6.650;2023-04-09T04:24:17;42302.13;;;-141.29;100.00
22025;BME280;11176;51.448;6.650;2023-04-09T04:26:44;42314.09;;;-141.29;100.00
22025;BME280;11176;51.448;6.650;2023-04-09T04:29:13;42294.13;;;-141.29;100.00
22025;BME280;11176;51.448;6.650;2023-04-09T04:31:55;42310.09;;;-141.29;100.00
22025;BME280;11176;51.448;6.650;2023-04-09T04:34:24;42294.13;;;-141.29;100.00
22025;BME280;11176;51.448;6.650;2023-04-09T04:37:07;42280.16;;;-141.29;100.00
22025;BME280;11176;51.448;6.650;2023-04-09T04:39:33;42282.16;;;-141.29;100.00
22025;BME280;11176;51.448;6.650;2023-04-09T04:42:04;42286.16;;;-141.29;100.00
22025;BME280;11176;51.448;6.650;2023-04-09T04:44:31;42298.13;;;-141.29;100.00
22025;BME280;11176;51.448;6.650;2023-04-09T04:47:08;42294.13;;;-141.29;100.00
22025;BME280;11176;51.448;6.650;2023-04-09T04:49:34;42278.16;;;-141.29;100.00
22025;BME280;11176;51.448;6.650;2023-04-09T04:52:04;42288.16;;;-141.29;100.00
22025;BME280;11176;51.448;6.650;2023-04-09T04:54:32;42278.16;;;-141.29;100.00
22025;BME280;11176;51.448;6.650;2023-04-09T04:56:59;42278.16;;;-141.29;100.00
22025;BME280;11176;51.448;6.650;2023-04-09T04:59:38;42282.16;;;-141.29;100.00
22025;BME280;11176;51.448;6.650;2023-04-09T05:02:09;42298.13;;;-141.29;100.00
22025;BME280;11176;51.448;6.650;2023-04-09T05:05:00;42290.13;;;-141.29;100.00
22025;BME280;11176;51.448;6.650;2023-04-09T05:07:34;42262.19;;;-141.29;100.00
22025;BME280;11176;51.448;6.650;2023-04-09T05:10:01;42268.19;;;-141.29;100.00
22025;BME280;11176;51.448;6.650;2023-04-09T05:12:34;42286.16;;;-141.29;100.00
22025;BME280;11176;51.448;6.650;2023-04-09T05:15:01;42290.13;;;-141.29;100.00
22025;BME280;11176;51.448;6.650;2023-04-09T05:17:28;42280.16;;;-141.29;100.00
22025;BME280;11176;51.448;6.650;2023-04-09T05:19:55;42296.13;;;-141.29;100.00
22025;BME280;11176;51.448;6.650;2023-04-09T05:22:31;42298.13;;;-141.29;100.00
22025;BME280;11176;51.448;6.650;2023-04-09T05:24:58;42302.13;;;-141.29;100.00
22025;BME280;11176;51.448;6.650;2023-04-09T05:27:26;42346.03;;;-141.29;100.00
22025;BME280;11176;51.448;6.650;2023-04-09T05:29:58;42268.19;;;-141.29;100.00
22025;BME280;11176;51.448;6.650;2023-04-09T05:32:26;42332.06;;;-141.29;100.00
22025;BME280;11176;51.448;6.650;2023-04-09T05:34:53;42348.03;;;-141.29;100.00
22025;BME280;11176;51.448;6.650;2023-04-09T05:37:19;42346.03;;;-141.29;100.00
22025;BME280;11176;51.448;6.650;2023-04-09T05:39:50;42334.06;;;-141.29;100.00
22025;BME280;11176;51.448;6.650;2023-04-09T05:42:16;42348.03;;;-141.29;100.00
22025;BME280;11176;51.448;6.650;2023-04-09T05:45:07;42346.03;;;-141.29;100.00
22025;BME280;11176;51.448;6.650;2023-04-09T05:47:36;42342.06;;;-141.29;100.00
22025;BME280;11176;51.448;6.650;2023-04-09T05:50:14;42385.97;;;-141.29;100.00
22025;BME280;11176;51.448;6.650;2023-04-09T05:52:41;42370.00;;;-141.29;100.00
22025;BME280;11176;51.448;6.650;2023-04-09T05:55:10;42393.97;;;-141.29;100.00
22025;BME280;11176;51.448;6.650;2023-04-09T05:57:46;42413.94;;;-141.29;100.00
22025;BME280;11176;51.448;6.650;2023-04-09T06:00:13;42401.94;;;-141.29;100.00
22025;BME280;11176;51.448;6.650;2023-04-09T06:02:44;42405.94;;;-141.29;100.00
22025;BME280;11176;51.448;6.650;2023-04-09T06:05:11;42429.91;;;-141.29;100.00
22025;BME280;11176;51.448;6.650;2023-04-09T06:07:38;42443.88;;;-141.29;100.00
22025;BME280;11176;51.448;6.650;2023-04-09T06:10:05;42437.88;;;-141.29;100.00
22025;BME280;11176;51.448;6.650;2023-04-09T06:12:33;42423.91;;;-141.29;100.00
22025;BME280;11176;51.448;6.650;2023-04-09T06:15:03;42481.81;;;-141.29;100.00
22025;BME280;11176;51.448;6.650;2023-04-09T06:17:30;42477.81;;;-141.29;100.00
22025;BME280;11176;51.448;6.650;2023-04-09T06:19:56;42491.81;;;-141.29;100.00
22025;BME280;11176;51.448;6.650;2023-04-09T06:22:22;42489.81;;;-141.29;100.00
22025;BME280;11176;51.448;6.650;2023-04-09T06:24:49;42501.78;;;-141.29;100.00
22025;BME280;11176;51.448;6.650;2023-04-09T06:27:15;42489.81;;;-141.29;100.00
22025;BME280;11176;51.448;6.650;2023-04-09T06:29:44;42511.78;;;-141.29;100.00
22025;BME280;11176;51.448;6.650;2023-04-09T06:32:10;42493.78;;;-141.29;100.00
22025;BME280;11176;51.448;6.650;2023-04-09T06:34:37;42537.72;;;-141.29;100.00
22025;BME280;11176;51.448;6.650;2023-04-09T06:37:03;42525.75;;;-141.29;100.00
22025;BME280;11176;51.448;6.650;2023-04-09T06:39:30;42553.69;;;-141.29;100.00
22025;BME280;11176;51.448;6.650;2023-04-09T06:41:56;42541.72;;;-141.29;100.00
22025;BME280;11176;51.448;6.650;2023-04-09T06:44:43;42557.69;;;-141.29;100.00
22025;BME280;11176;51.448;6.650;2023-04-09T06:47:09;42545.72;;;-141.29;100.00
22025;BME280;11176;51.448;6.650;2023-04-09T06:49:36;42577.66;;;-141.29;100.00
22025;BME280;11176;51.448;6.650;2023-04-09T06:52:03;42579.66;;;-141.29;100.00
22025;BME280;11176;51.448;6.650;2023-04-09T06:54:30;42585.66;;;-141.29;100.00
22025;BME280;11176;51.448;6.650;2023-04-09T06:56:56;42579.66;;;-141.29;100.00
22025;BME280;11176;51.448;6.650;2023-04-09T06:59:23;42597.63;;;-141.29;100.00
22025;BME280;11176;51.448;6.650;2023-04-09T07:01:49;42605.63;;;-141.29;100.00
22025;BME280;11176;51.448;6.650;2023-04-09T07:04:19;42623.59;;;-141.29;100.00
22025;BME280;11176;51.448;6.650;2023-04-09T07:06:46;42623.59;;;-141.29;100.00
22025;BME280;11176;51.448;6.650;2023-04-09T07:09:13;42631.56;;;-141.29;100.00
22025;BME280;11176;51.448;6.650;2023-04-09T07:11:39;42613.59;;;-141.29;100.00
22025;BME280;11176;51.448;6.650;2023-04-09T07:14:06;42629.56;;;-141.29;100.00
22025;BME280;11176;51.448;6.650;2023-04-09T07:16:32;42629.56;;;-141.29;100.00
22025;BME280;11176;51.448;6.650;2023-04-09T07:18:59;42623.59;;;-141.29;100.00
22025;BME280;11176;51.448;6.650;2023-04-09T07:21:25;42591.63;;;-141.29;100.00
22025;BME280;11176;51.448;6.650;2023-04-09T07:23:53;42617.59;;;-141.29;100.00
22025;BME280;11176;51.448;6.650;2023-04-09T07:26:21;42605.63;;;-141.29;100.00
22025;BME280;11176;51.448;6.650;2023-04-09T07:28:48;42573.66;;;-141.29;100.00
22025;BME280;11176;51.448;6.650;2023-04-09T07:31:14;42605.63;;;-141.29;100.00
22025;BME280;11176;51.448;6.650;2023-04-09T07:33:42;42591.63;;;-141.29;100.00
22025;BME280;11176;51.448;6.650;2023-04-09T07:36:08;42581.66;;;-141.29;100.00
22025;BME280;11176;51.448;6.650;2023-04-09T07:38:35;42581.66;;;-141.29;100.00
22025;BME280;11176;51.448;6.650;2023-04-09T07:41:01;42547.72;;;-141.29;100.00
22025;BME280;11176;51.448;6.650;2023-04-09T07:43:28;42533.72;;;-141.29;100.00
22025;BME280;11176;51.448;6.650;2023-04-09T07:45:54;42533.72;;;-141.29;100.00
22025;BME280;11176;51.448;6.650;2023-04-09T07:48:21;42551.69;;;-141.29;100.00
22025;BME280;11176;51.448;6.650;2023-04-09T07:50:47;42509.78;;;-141.29;100.00
22025;BME280;11176;51.448;6.650;2023-04-09T07:53:14;42533.72;;;-141.29;99.78
22025;BME280;11176;51.448;6.650;2023-04-09T07:55:40;42519.75;;;-141.29;99.11
22025;BME280;11176;51.448;6.650;2023-04-09T07:58:07;42517.75;;;-141.29;98.03
22025;BME280;11176;51.448;6.650;2023-04-09T08:00:33;42513.75;;;-141.29;97.80
22025;BME280;11176;51.448;6.650;2023-04-09T08:03:00;42501.78;;;-141.29;97.98
22025;BME280;11176;51.448;6.650;2023-04-09T08:05:29;42521.75;;;-141.29;97.36
22025;BME280;11176;51.448;6.650;2023-04-09T08:07:56;42529.75;;;-141.29;97.16
22025;BME280;11176;51.448;6.650;2023-04-09T08:10:22;42511.78;;;-141.29;94.72
22025;BME280;11176;51.448;6.650;2023-04-09T08:12:49;42505.78;;;-141.29;94.32
22025;BME280;11176;51.448;6.650;2023-04-09T08:15:15;42485.81;;;-141.29;93.10
22025;BME280;11176;51.448;6.650;2023-04-09T08:17:42;42461.84;;;-141.29;92.36
22025;BME280;11176;51.448;6.650;2023-04-09T08:20:08;42461.84;;;-141.29;91.13
22025;BME280;11176;51.448;6.650;2023-04-09T08:22:35;42433.91;;;-141.29;90.89
22025;BME280;11176;51.448;6.650;2023-04-09T08:25:01;42449.88;;;-141.29;90.41
22025;BME280;11176;51.448;6.650;2023-04-09T08:27:28;42443.88;;;-141.29;89.52
22025;BME280;11176;51.448;6.650;2023-04-09T08:29:55;42429.91;;;-141.29;87.87
22025;BME280;11176;51.448;6.650;2023-04-09T08:32:21;42429.91;;;-141.29;88.58
22025;BME280;11176;51.448;6.650;2023-04-09T08:34:48;42439.88;;;-141.29;88.52
22025;BME280;11176;51.448;6.650;2023-04-09T08:37:14;42447.88;;;-141.29;88.68
22025;BME280;11176;51.448;6.650;2023-04-09T08:39:42;42425.91;;;-141.29;86.48
22025;BME280;11176;51.448;6.650;2023-04-09T08:42:10;42427.91;;;-141.29;86.24
22025;BME280;11176;51.448;6.650;2023-04-09T08:44:37;42429.91;;;-141.29;85.51
22025;BME280;11176;51.448;6.650;2023-04-09T08:47:07;42417.94;;;-141.29;84.22
22025;BME280;11176;51.448;6.650;2023-04-09T08:49:39;42391.97;;;-141.29;80.28
22025;BME280;11176;51.448;6.650;2023-04-09T08:52:07;42366.00;;;-141.29;80.56
22025;BME280;11176;51.448;6.650;2023-04-09T08:54:33;42350.03;;;-141.29;79.91
22025;BME280;11176;51.448;6.650;2023-04-09T08:57:04;42346.03;;;-141.29;78.51
22025;BME280;11176;51.448;6.650;2023-04-09T08:59:31;42342.06;;;-141.29;78.37
22025;BME280;11176;51.448;6.650;2023-04-09T09:02:07;42314.09;;;-141.29;77.36
22025;BME280;11176;51.448;6.650;2023-04-09T09:07:11;42326.09;;;-141.29;75.85
22025;BME280;11176;51.448;6.650;2023-04-09T09:12:38;42290.13;;;-141.29;75.42
22025;BME280;11176;51.448;6.650;2023-04-09T09:15:28;42286.16;;;-141.29;74.82
22025;BME280;11176;51.448;6.650;2023-04-09T09:17:57;42306.13;;;-141.29;74.75
22025;BME280;11176;51.448;6.650;2023-04-09T09:20:24;42278.16;;;-141.29;73.02
22025;BME280;11176;51.448;6.650;2023-04-09T09:22:53;42316.09;;;-141.29;73.06
22025;BME280;11176;51.448;6.650;2023-04-09T09:25:21;42304.13;;;-141.29;73.18
22025;BME280;11176;51.448;6.650;2023-04-09T09:27:50;42240.22;;;-141.29;69.82
22025;BME280;11176;51.448;6.650;2023-04-09T09:30:25;42226.25;;;-141.29;66.65
22025;BME280;11176;51.448;6.650;2023-04-09T09:32:53;42222.25;;;-141.29;66.54
22025;BME280;11176;51.448;6.650;2023-04-09T09:35:29;42222.25;;;-141.29;67.75
22025;BME280;11176;51.448;6.650;2023-04-09T09:38:02;42214.28;;;-141.29;66.39
22025;BME280;11176;51.448;6.650;2023-04-09T09:40:30;42222.25;;;-141.29;67.80
22025;BME280;11176;51.448;6.650;2023-04-09T09:42:56;42186.31;;;-141.29;64.99
22025;BME280;11176;51.448;6.650;2023-04-09T09:45:24;42220.25;;;-141.29;66.10
22025;BME280;11176;51.448;6.650;2023-04-09T09:47:52;42154.38;;;-141.29;63.77
22025;BME280;11176;51.448;6.650;2023-04-09T09:50:22;42126.44;;;-141.29;59.86
22025;BME280;11176;51.448;6.650;2023-04-09T09:52:55;42086.50;;;-141.29;57.74
22025;BME280;11176;51.448;6.650;2023-04-09T09:55:23;42090.50;;;-141.29;57.85
22025;BME280;11176;51.448;6.650;2023-04-09T09:57:54;42098.47;;;-141.29;57.90
22025;BME280;11176;51.448;6.650;2023-04-09T10:00:22;42082.50;;;-141.29;59.29
22025;BME280;11176;51.448;6.650;2023-04-09T10:03:00;42154.38;;;-141.29;63.66
22025;BME280;11176;51.448;6.650;2023-04-09T10:05:29;42150.38;;;-141.29;64.83
22025;BME280;11176;51.448;6.650;2023-04-09T10:07:56;42148.38;;;-141.29;63.99
22025;BME280;11176;51.448;6.650;2023-04-09T10:10:24;42082.50;;;-141.29;58.29
22025;BME280;11176;51.448;6.650;2023-04-09T10:12:52;42130.41;;;-141.29;62.82
22025;BME280;11176;51.448;6.650;2023-04-09T10:15:19;42054.56;;;-141.29;54.96
22025;BME280;11176;51.448;6.650;2023-04-09T10:17:45;42066.53;;;-141.29;57.36
22025;BME280;11176;51.448;6.650;2023-04-09T10:20:38;42032.59;;;-141.29;51.93
22025;BME280;11176;51.448;6.650;2023-04-09T10:23:12;42002.66;;;-141.29;53.22
22025;BME280;11176;51.448;6.650;2023-04-09T10:25:40;41990.66;;;-141.29;52.70
22025;BME280;11176;51.448;6.650;2023-04-09T10:28:15;41962.72;;;-141.29;52.17
22025;BME280;11176;51.448;6.650;2023-04-09T10:30:42;41994.66;;;-141.29;54.46
22025;BME280;11176;51.448;6.650;2023-04-09T10:33:22;41974.69;;;-141.29;53.01
22025;BME280;11176;51.448;6.650;2023-04-09T10:35:54;41944.75;;;-141.29;51.98
22025;BME280;11176;51.448;6.650;2023-04-09T10:38:44;41942.75;;;-141.29;48.94
22025;BME280;11176;51.448;6.650;2023-04-09T10:41:14;41970.72;;;-141.29;52.75
22025;BME280;11176;51.448;6.650;2023-04-09T10:43:46;41938.75;;;-141.29;52.56
22025;BME280;11176;51.448;6.650;2023-04-09T10:46:29;41958.72;;;-141.29;53.40
22025;BME280;11176;51.448;6.650;2023-04-09T10:49:15;41938.75;;;-141.29;50.85
22025;BME280;11176;51.448;6.650;2023-04-09T10:51:47;41958.72;;;-141.29;52.41
22025;BME280;11176;51.448;6.650;2023-04-09T10:59:38;41922.78;;;-141.29;50.64
22025;BME280;11176;51.448;6.650;2023-04-09T11:02:09;41866.91;;;-141.29;45.16
22025;BME280;11176;51.448;6.650;2023-04-09T11:05:18;41856.91;;;-141.29;45.65
22025;BME280;11176;51.448;6.650;2023-04-09T11:07:55;41852.91;;;-141.29;46.90
22025;BME280;11176;51.448;6.650;2023-04-09T11:10:23;41842.94;;;-141.29;46.06
22025;BME280;11176;51.448;6.650;2023-04-09T11:12:50;41822.97;;;-141.29;45.41
22025;BME280;11176;51.448;6.650;2023-04-09T11:15:18;41846.94;;;-141.29;47.35
22025;BME280;11176;51.448;6.650;2023-04-09T11:17:46;41842.94;;;-141.29;47.14
22025;BME280;11176;51.448;6.650;2023-04-09T11:20:16;41797.03;;;-141.29;41.47
22025;BME280;11176;51.448;6.650;2023-04-09T11:22:46;41749.13;;;-141.29;43.11
22025;BME280;11176;51.448;6.650;2023-04-09T11:25:24;41775.06;;;-141.29;43.16
22025;BME280;11176;51.448;6.650;2023-04-09T11:27:52;41679.25;;;-141.29;39.71
22025;BME280;11176;51.448;6.650;2023-04-09T11:30:19;41675.25;;;-141.29;39.95
22025;BME280;11176;51.448;6.650;2023-04-09T11:32:47;41679.25;;;-141.29;40.28
22025;BME280;11176;51.448;6.650;2023-04-09T11:35:18;41591.41;;;-141.29;36.57
22025;BME280;11176;51.448;6.650;2023-04-09T11:37:45;41385.81;;;-141.29;34.66
22025;BME280;11176;51.448;6.650;2023-04-09T11:40:22;41282.03;;;-141.29;34.65
22025;BME280;11176;51.448;6.650;2023-04-09T11:42:53;41178.25;;;-141.29;33.77
22025;BME280;11176;51.448;6.650;2023-04-09T11:45:23;41220.16;;;-141.29;35.99
22025;BME280;11176;51.448;6.650;2023-04-09T11:47:51;41004.59;;;-141.29;32.65
22025;BME280;11176;51.448;6.650;2023-04-09T11:50:18;40880.88;;;-141.29;31.88
22025;BME280;11176;51.448;6.650;2023-04-09T11:52:45;40866.91;;;-141.29;32.74
22025;BME280;11176;51.448;6.650;2023-04-09T11:55:21;40904.81;;;-141.29;33.89
22025;BME280;11176;51.448;6.650;2023-04-09T11:57:50;40715.22;;;-141.29;31.22
22025;BME280;11176;51.448;6.650;2023-04-09T12:00:18;40691.28;;;-141.29;31.87
22025;BME280;11176;51.448;6.650;2023-04-09T12:02:46;40689.28;;;-141.29;32.39
22025;BME280;11176;51.448;6.650;2023-04-09T12:05:22;40657.34;;;-141.29;32.30
22025;BME280;11176;51.448;6.650;2023-04-09T12:07:51;40463.78;;;-141.29;31.00
22025;BME280;11176;51.448;6.650;2023-04-09T12:10:25;40370.00;;;-141.29;30.73
22025;BME280;11176;51.448;6.650;2023-04-09T12:12:52;40397.94;;;-141.29;31.93
22025;BME280;11176;51.448;6.650;2023-04-09T12:15:24;40383.97;;;-141.29;31.64
22025;BME280;11176;51.448;6.650;2023-04-09T12:17:56;40244.28;;;-141.29;31.11
22025;BME280;11176;51.448;6.650;2023-04-09T12:22:56;40090.66;;;-141.29;30.14
22025;BME280;11176;51.448;6.650;2023-04-09T12:25:23;40072.69;;;-141.29;30.62
22025;BME280;11176;51.448;6.650;2023-04-09T12:27:49;40088.66;;;-141.29;31.20
22025;BME280;11176;51.448;6.650;2023-04-09T12:30:16;40118.59;;;-141.29;31.65
22025;BME280;11176;51.448;6.650;2023-04-09T12:32:42;40146.50;;;-141.29;32.19
22025;BME280;11176;51.448;6.650;2023-04-09T12:35:11;40106.59;;;-141.29;31.68
22025;BME280;11176;51.448;6.650;2023-04-09T12:37:37;39958.97;;;-141.29;29.71
22025;BME280;11176;51.448;6.650;2023-04-09T12:40:04;39988.88;;;-141.29;30.50
22025;BME280;11176;51.448;6.650;2023-04-09T12:42:31;40016.81;;;-141.29;30.62
22025;BME280;11176;51.448;6.650;2023-04-09T12:44:57;39835.25;;;-141.29;29.06
22025;BME280;11176;51.448;6.650;2023-04-09T12:47:24;39831.28;;;-141.29;29.07
22025;BME280;11176;51.448;6.650;2023-04-09T12:49:50;39751.47;;;-141.29;28.71
22025;BME280;11176;51.448;6.650;2023-04-09T12:52:17;39532.03;;;-141.29;28.01
22025;BME280;11176;51.448;6.650;2023-04-09T12:54:43;39530.03;;;-141.29;28.08
22025;BME280;11176;51.448;6.650;2023-04-09T12:57:10;39476.16;;;-141.29;27.89
22025;BME280;11176;51.448;6.650;2023-04-09T12:59:36;39494.13;;;-141.29;28.52
22025;BME280;11176;51.448;6.650;2023-04-09T13:02:03;39579.91;;;-141.29;29.74